createdAt,value
2018-12-17T00:01:20.122Z,98414.00
2018-12-17T00:03:48.664Z,98423.00
2018-12-17T00:06:17.499Z,98422.00
2018-12-17T00:08:46.275Z,98420.00
2018-12-17T00:11:15.126Z,98420.00
2018-12-17T00:13:43.607Z,98424.00
2018-12-17T00:16:12.104Z,98430.00
2018-12-17T00:18:40.666Z,98431.00
2018-12-17T00:21:09.129Z,98429.00
2018-12-17T00:23:37.674Z,98421.00
2018-12-17T00:26:06.174Z,98432.00
2018-12-17T00:28:34.663Z,98429.00
2018-12-17T00:31:03.266Z,98428.00
2018-12-17T00:33:31.756Z,98428.00
2018-12-17T00:36:00.248Z,98433.00
2018-12-17T00:38:28.752Z,98427.00
2018-12-17T00:40:57.263Z,98425.00
2018-12-17T00:43:26.004Z,98420.00
2018-12-17T00:45:54.630Z,98432.00
2018-12-17T00:48:23.360Z,98433.00
2018-12-17T00:50:52.187Z,98439.00
2018-12-17T00:53:20.906Z,98441.00
2018-12-17T00:55:49.418Z,98443.00
2018-12-17T00:58:17.932Z,98428.00
2018-12-17T01:00:46.443Z,98440.00
2018-12-17T01:03:14.932Z,98436.00
2018-12-17T01:05:43.416Z,98441.00
2018-12-17T01:08:11.917Z,98441.00
2018-12-17T01:10:40.401Z,98445.00
2018-12-17T01:13:09.002Z,98446.00
2018-12-17T01:15:37.610Z,98445.00
2018-12-17T01:18:06.121Z,98449.00
2018-12-17T01:20:34.624Z,98459.00
2018-12-17T01:23:03.135Z,98459.00
2018-12-17T01:25:31.628Z,98459.00
2018-12-17T01:28:00.133Z,98468.00
2018-12-17T01:30:28.811Z,98475.00
2018-12-17T01:32:57.298Z,98472.00
2018-12-17T01:35:25.796Z,98474.00
2018-12-17T01:37:54.289Z,98469.00
2018-12-17T01:40:22.843Z,98474.00
2018-12-17T01:42:51.418Z,98477.00
2018-12-17T01:45:20.016Z,98484.00
2018-12-17T01:47:48.503Z,98477.00
2018-12-17T01:50:17.019Z,98482.00
2018-12-17T01:52:45.512Z,98492.00
2018-12-17T01:55:14.001Z,98484.00
2018-12-17T01:57:42.539Z,98477.00
2018-12-17T02:00:11.041Z,98485.00
2018-12-17T02:02:39.530Z,98482.00
2018-12-17T02:05:08.022Z,98477.00
2018-12-17T02:07:36.517Z,98485.00
2018-12-17T02:10:05.002Z,98492.00
2018-12-17T02:12:33.492Z,98483.00
2018-12-17T02:15:01.990Z,98479.00
2018-12-17T02:17:30.664Z,98496.00
2018-12-17T02:19:59.334Z,98499.00
2018-12-17T02:22:28.064Z,98497.00
2018-12-17T02:24:56.552Z,98487.00
2018-12-17T02:27:25.037Z,98484.00
2018-12-17T02:29:53.519Z,98480.00
2018-12-17T02:32:22.172Z,98481.00
2018-12-17T02:34:50.668Z,98495.00
2018-12-17T02:37:19.143Z,98488.00
2018-12-17T02:39:47.619Z,98496.00
2018-12-17T02:42:16.112Z,98496.00
2018-12-17T02:44:44.624Z,98499.00
2018-12-17T02:47:13.097Z,98504.00
2018-12-17T02:49:41.859Z,98504.00
2018-12-17T02:52:10.377Z,98504.00
2018-12-17T02:54:39.630Z,98517.00
2018-12-17T02:57:08.669Z,98514.00
2018-12-17T02:59:37.884Z,98515.00
2018-12-17T03:02:07.135Z,98513.00
2018-12-17T03:04:36.527Z,98513.00
2018-12-17T03:07:05.576Z,98508.00
2018-12-17T03:09:34.757Z,98507.00
2018-12-17T03:12:03.969Z,98514.00
2018-12-17T03:14:33.226Z,98514.00
2018-12-17T03:17:02.365Z,98507.00
2018-12-17T03:19:31.459Z,98501.00
2018-12-17T03:22:00.555Z,98508.00
2018-12-17T03:24:29.095Z,98501.00
2018-12-17T03:26:57.607Z,98509.00
2018-12-17T03:29:26.094Z,98496.00
2018-12-17T03:31:54.830Z,98511.00
2018-12-17T03:34:23.305Z,98513.00
2018-12-17T03:36:52.086Z,98515.00
2018-12-17T03:39:20.573Z,98524.00
2018-12-17T03:41:49.078Z,98519.00
2018-12-17T03:44:17.559Z,98530.00
2018-12-17T03:46:46.104Z,98529.00
2018-12-17T03:49:14.612Z,98539.00
2018-12-17T03:51:43.119Z,98542.00
2018-12-17T03:54:11.719Z,98553.00
2018-12-17T03:56:40.213Z,98543.00
2018-12-17T03:59:08.924Z,98553.00
2018-12-17T04:01:37.419Z,98555.00
2018-12-17T04:04:05.897Z,98555.00
2018-12-17T04:06:34.393Z,98556.00
2018-12-17T04:09:04.351Z,98561.00
2018-12-17T04:11:32.941Z,98560.00
2018-12-17T04:14:01.595Z,98575.00
2018-12-17T04:16:30.147Z,98554.00
2018-12-17T04:18:58.695Z,98565.00
2018-12-17T04:21:27.203Z,98568.00
2018-12-17T04:23:55.792Z,98567.00
2018-12-17T04:26:24.277Z,98565.00
2018-12-17T04:28:52.790Z,98556.00
2018-12-17T04:31:21.292Z,98567.00
2018-12-17T04:33:49.766Z,98572.00
2018-12-17T04:36:18.259Z,98583.00
2018-12-17T04:38:46.747Z,98581.00
2018-12-17T04:41:15.247Z,98576.00
2018-12-17T04:43:43.745Z,98580.00
2018-12-17T04:46:12.431Z,98593.00
2018-12-17T04:48:40.924Z,98593.00
2018-12-17T04:51:09.752Z,98603.00
2018-12-17T04:53:38.225Z,98606.00
2018-12-17T04:56:06.760Z,98608.00
2018-12-17T04:58:35.247Z,98601.00
2018-12-17T05:01:03.758Z,98604.00
2018-12-17T05:03:32.521Z,98619.00
2018-12-17T05:06:01.087Z,98599.00
2018-12-17T05:08:29.566Z,98617.00
2018-12-17T05:10:58.062Z,98614.00
2018-12-17T05:13:26.911Z,98616.00
2018-12-17T05:15:55.468Z,98617.00
2018-12-17T05:18:24.088Z,98626.00
2018-12-17T05:20:52.580Z,98627.00
2018-12-17T05:23:21.078Z,98636.00
2018-12-17T05:25:49.589Z,98631.00
2018-12-17T05:28:18.065Z,98643.00
2018-12-17T05:30:46.656Z,98643.00
2018-12-17T05:33:15.801Z,98648.00
2018-12-17T05:35:44.293Z,98650.00
2018-12-17T05:38:12.880Z,98661.00
2018-12-17T05:40:41.386Z,98656.00
2018-12-17T05:43:09.975Z,98667.00
2018-12-17T05:45:38.459Z,98668.00
2018-12-17T05:48:07.043Z,98682.00
2018-12-17T05:50:36.520Z,98675.00
2018-12-17T05:53:05.139Z,98674.00
2018-12-17T05:55:33.673Z,98680.00
2018-12-17T05:58:02.151Z,98671.00
2018-12-17T06:00:30.872Z,98685.00
2018-12-17T06:02:59.549Z,98696.00
2018-12-17T06:05:28.199Z,98698.00
2018-12-17T06:07:56.727Z,98693.00
2018-12-17T06:10:25.251Z,98695.00
2018-12-17T06:12:53.733Z,98697.00
2018-12-17T06:15:22.313Z,98710.00
2018-12-17T06:17:50.811Z,98702.00
2018-12-17T06:20:19.334Z,98701.00
2018-12-17T06:22:47.804Z,98706.00
2018-12-17T06:25:16.450Z,98697.00
2018-12-17T06:27:44.920Z,98701.00
2018-12-17T06:30:13.470Z,98704.00
2018-12-17T06:32:41.965Z,98698.00
2018-12-17T06:35:10.450Z,98715.00
2018-12-17T06:37:38.946Z,98723.00
2018-12-17T06:40:10.407Z,98720.00
2018-12-17T06:42:37.958Z,98721.00
2018-12-17T06:45:06.571Z,98727.00
2018-12-17T06:47:35.075Z,98740.00
2018-12-17T06:50:03.544Z,98742.00
2018-12-17T06:52:32.025Z,98753.00
2018-12-17T06:55:00.513Z,98746.00
2018-12-17T06:57:29.231Z,98756.00
2018-12-17T06:59:57.798Z,98760.00
2018-12-17T07:02:26.378Z,98768.00
2018-12-17T07:04:54.879Z,98765.00
2018-12-17T07:07:23.427Z,98780.00
2018-12-17T07:09:51.904Z,98757.00
2018-12-17T07:12:20.733Z,98763.00
2018-12-17T07:14:49.236Z,98764.00
2018-12-17T07:17:17.727Z,98760.00
2018-12-17T07:19:46.249Z,98772.00
2018-12-17T07:22:14.740Z,98759.00
2018-12-17T07:24:43.284Z,98775.00
2018-12-17T07:27:11.787Z,98785.00
2018-12-17T07:29:40.290Z,98781.00
2018-12-17T07:32:08.781Z,98778.00
2018-12-17T07:34:37.604Z,98797.00
2018-12-17T07:37:06.266Z,98786.00
2018-12-17T07:39:35.392Z,98810.00
2018-12-17T07:42:03.888Z,98797.00
2018-12-17T07:44:32.392Z,98795.00
2018-12-17T07:47:01.152Z,98797.00
2018-12-17T07:49:29.649Z,98809.00
2018-12-17T07:51:58.242Z,98808.00
2018-12-17T07:54:26.783Z,98795.00
2018-12-17T07:56:55.473Z,98812.00
2018-12-17T07:59:23.949Z,98814.00
2018-12-17T08:01:52.434Z,98816.00
2018-12-17T08:04:20.923Z,98833.00
2018-12-17T08:06:49.443Z,98819.00
2018-12-17T08:09:18.100Z,98829.00
2018-12-17T08:11:46.601Z,98826.00
2018-12-17T08:14:15.107Z,98841.00
2018-12-17T08:16:43.585Z,98840.00
2018-12-17T08:19:12.073Z,98840.00
2018-12-17T08:21:40.555Z,98839.00
2018-12-17T08:24:08.834Z,98844.00
2018-12-17T08:26:37.110Z,98852.00
2018-12-17T08:29:05.403Z,98851.00
2018-12-17T08:31:33.694Z,98854.00
2018-12-17T08:34:01.958Z,98855.00
2018-12-17T08:36:30.233Z,98861.00
2018-12-17T08:38:58.520Z,98869.00
2018-12-17T08:41:26.805Z,98871.00
2018-12-17T08:43:55.077Z,98863.00
2018-12-17T08:46:23.356Z,98875.00
2018-12-17T08:48:51.654Z,98881.00
2018-12-17T08:51:19.924Z,98887.00
2018-12-17T08:53:48.196Z,98889.00
2018-12-17T08:56:16.504Z,98896.00
2018-12-17T08:58:44.777Z,98897.00
2018-12-17T09:01:13.062Z,98895.00
2018-12-17T09:03:41.321Z,98910.00
2018-12-17T09:06:09.629Z,98903.00
2018-12-17T09:08:37.902Z,98908.00
2018-12-17T09:11:06.270Z,98904.00
2018-12-17T09:13:34.575Z,98897.00
2018-12-17T09:16:02.878Z,98896.00
2018-12-17T09:18:31.156Z,98908.00
2018-12-17T09:20:59.441Z,98900.00
2018-12-17T09:23:27.713Z,98912.00
2018-12-17T09:25:55.976Z,98903.00
2018-12-17T09:28:24.287Z,98919.00
2018-12-17T09:30:52.571Z,98925.00
2018-12-17T09:33:20.853Z,98916.00
2018-12-17T09:35:49.204Z,98930.00
2018-12-17T09:38:17.500Z,98908.00
2018-12-17T09:40:45.870Z,98918.00
2018-12-17T09:43:14.154Z,98926.00
2018-12-17T09:45:42.453Z,98925.00
2018-12-17T09:48:11.005Z,98928.00
2018-12-17T09:50:39.286Z,98931.00
2018-12-17T09:53:07.566Z,98922.00
2018-12-17T09:55:36.452Z,98921.00
2018-12-17T09:58:04.854Z,98925.00
2018-12-17T10:00:33.197Z,98928.00
2018-12-17T10:03:01.465Z,98925.00
2018-12-17T10:05:29.844Z,98928.00
2018-12-17T10:07:58.144Z,98928.00
2018-12-17T10:10:26.441Z,98924.00
2018-12-17T10:12:54.905Z,98917.00
2018-12-17T10:15:23.153Z,98924.00
2018-12-17T10:17:51.445Z,98915.00
2018-12-17T10:20:19.725Z,98903.00
2018-12-17T10:22:47.998Z,98903.00
2018-12-17T10:25:16.274Z,98898.00
2018-12-17T10:27:44.549Z,98906.00
2018-12-17T10:30:12.829Z,98911.00
2018-12-17T10:32:41.117Z,98909.00
2018-12-17T10:35:09.397Z,98913.00
2018-12-17T10:37:37.687Z,98912.00
2018-12-17T10:40:06.774Z,98902.00
2018-12-17T10:42:35.094Z,98904.00
2018-12-17T10:45:03.398Z,98912.00
2018-12-17T10:47:31.669Z,98933.00
2018-12-17T10:49:59.946Z,98931.00
2018-12-17T10:52:28.238Z,98930.00
2018-12-17T10:54:56.624Z,98940.00
2018-12-17T10:57:24.919Z,98927.00
2018-12-17T10:59:53.198Z,98910.00
2018-12-17T11:02:26.350Z,98923.00
2018-12-17T11:04:59.101Z,98915.00
2018-12-17T11:07:27.393Z,98928.00
2018-12-17T11:09:55.672Z,98911.00
2018-12-17T11:12:23.945Z,98941.00
2018-12-17T11:14:52.433Z,98925.00
2018-12-17T11:17:20.842Z,98928.00
2018-12-17T11:19:49.127Z,98927.00
2018-12-17T11:22:17.530Z,98909.00
2018-12-17T11:24:45.837Z,98941.00
2018-12-17T11:27:14.142Z,98925.00
2018-12-17T11:29:42.454Z,98913.00
2018-12-17T11:32:11.685Z,98933.00
2018-12-17T11:34:40.218Z,98926.00
2018-12-17T11:37:08.638Z,98922.00
2018-12-17T11:39:36.909Z,98921.00
2018-12-17T11:42:05.181Z,98917.00
2018-12-17T11:44:33.486Z,98923.00
2018-12-17T11:47:01.770Z,98925.00
2018-12-17T11:49:30.040Z,98927.00
2018-12-17T11:51:58.337Z,98935.00
2018-12-17T11:54:26.624Z,98932.00
2018-12-17T11:57:02.830Z,98932.00
2018-12-17T11:59:31.103Z,98921.00
2018-12-17T12:01:59.406Z,98927.00
2018-12-17T12:04:27.701Z,98924.00
2018-12-17T12:06:55.994Z,98920.00
2018-12-17T12:09:26.009Z,98919.00
2018-12-17T12:11:54.316Z,98926.00
2018-12-17T12:14:22.599Z,98911.00
2018-12-17T12:16:50.902Z,98912.00
2018-12-17T12:19:19.189Z,98912.00
2018-12-17T12:21:47.478Z,98914.00
2018-12-17T12:24:15.904Z,98928.00
2018-12-17T12:26:44.165Z,98921.00
2018-12-17T12:29:12.469Z,98939.00
2018-12-17T12:31:40.885Z,98935.00
2018-12-17T12:34:09.285Z,98930.00
2018-12-17T12:36:37.701Z,98933.00
2018-12-17T12:39:06.989Z,98939.00
2018-12-17T12:41:35.271Z,98928.00
2018-12-17T12:44:08.779Z,98930.00
2018-12-17T12:46:33.819Z,98927.00
2018-12-17T12:49:02.152Z,98926.00
2018-12-17T12:51:32.742Z,98931.00
2018-12-17T12:54:00.741Z,98922.00
2018-12-17T12:56:29.051Z,98928.00
2018-12-17T12:58:57.342Z,98936.00
2018-12-17T13:01:25.612Z,98936.00
2018-12-17T13:03:53.903Z,98946.00
2018-12-17T13:06:22.185Z,98959.00
2018-12-17T13:08:50.458Z,98950.00
2018-12-17T13:11:18.764Z,98957.00
2018-12-17T13:13:47.069Z,98946.00
2018-12-17T13:16:15.354Z,98953.00
2018-12-17T13:18:43.705Z,98949.00
2018-12-17T13:21:12.018Z,98943.00
2018-12-17T13:23:40.291Z,98957.00
2018-12-17T13:26:08.658Z,98952.00
2018-12-17T13:28:36.938Z,98957.00
2018-12-17T13:31:05.249Z,98962.00
2018-12-17T13:33:33.527Z,98964.00
2018-12-17T13:36:01.833Z,98968.00
2018-12-17T13:38:30.122Z,98970.00
2018-12-17T13:40:58.518Z,98978.00
2018-12-17T13:43:26.817Z,98992.00
2018-12-17T13:45:55.094Z,98990.00
2018-12-17T13:48:23.369Z,98977.00
2018-12-17T13:50:51.649Z,98984.00
2018-12-17T13:53:25.426Z,98979.00
2018-12-17T13:55:53.713Z,98979.00
2018-12-17T13:58:22.074Z,98983.00
2018-12-17T14:00:50.357Z,98981.00
2018-12-17T14:03:18.650Z,98985.00
2018-12-17T14:05:46.931Z,98988.00
2018-12-17T14:08:15.297Z,98985.00
2018-12-17T14:10:49.076Z,99000.00
2018-12-17T14:13:17.361Z,99007.00
2018-12-17T14:15:52.226Z,98994.00
2018-12-17T14:18:25.997Z,99009.00
2018-12-17T14:20:59.771Z,99014.00
2018-12-17T14:23:28.283Z,99011.00
2018-12-17T14:25:56.825Z,99015.00
2018-12-17T14:28:25.349Z,99017.00
2018-12-17T14:30:53.918Z,99025.00
2018-12-17T14:33:22.453Z,99029.00
2018-12-17T14:35:56.547Z,99023.00
2018-12-17T14:38:25.095Z,99026.00
2018-12-17T14:40:55.254Z,99031.00
2018-12-17T14:43:24.117Z,99034.00
2018-12-17T14:45:52.634Z,99043.00
2018-12-17T14:48:21.138Z,99039.00
2018-12-17T14:50:49.735Z,99059.00
2018-12-17T14:53:18.249Z,99061.00
2018-12-17T14:55:47.012Z,99061.00
2018-12-17T14:58:15.558Z,99067.00
2018-12-17T15:00:44.064Z,99072.00
2018-12-17T15:03:12.653Z,99059.00
2018-12-17T15:05:41.256Z,99083.00
2018-12-17T15:08:09.852Z,99084.00
2018-12-17T15:10:38.550Z,99085.00
2018-12-17T15:13:07.119Z,99075.00
2018-12-17T15:15:35.616Z,99088.00
2018-12-17T15:18:04.138Z,99086.00
2018-12-17T15:20:32.622Z,99096.00
2018-12-17T15:23:01.175Z,99096.00
2018-12-17T15:25:29.816Z,99093.00
2018-12-17T15:27:58.413Z,99102.00
2018-12-17T15:30:26.916Z,99109.00
2018-12-17T15:32:55.416Z,99121.00
2018-12-17T15:35:23.907Z,99126.00
2018-12-17T15:37:52.440Z,99127.00
2018-12-17T15:40:21.055Z,99139.00
2018-12-17T15:42:49.580Z,99134.00
2018-12-17T15:45:18.093Z,99141.00
2018-12-17T15:47:46.616Z,99147.00
2018-12-17T15:50:14.916Z,99154.00
2018-12-17T15:52:43.184Z,99161.00
2018-12-17T15:55:11.480Z,99170.00
2018-12-17T15:57:39.749Z,99165.00
2018-12-17T16:00:10.417Z,99176.00
2018-12-17T16:02:38.682Z,99172.00
2018-12-17T16:05:07.048Z,99177.00
2018-12-17T16:07:35.416Z,99183.00
2018-12-17T16:10:03.965Z,99183.00
2018-12-17T16:12:32.238Z,99183.00
2018-12-17T16:15:00.559Z,99190.00
2018-12-17T16:17:28.850Z,99191.00
2018-12-17T16:19:57.132Z,99180.00
2018-12-17T16:22:25.411Z,99190.00
2018-12-17T16:24:53.816Z,99189.00
2018-12-17T16:27:22.137Z,99199.00
2018-12-17T16:29:50.626Z,99200.00
2018-12-17T16:32:18.914Z,99204.00
2018-12-17T16:34:47.193Z,99195.00
2018-12-17T16:37:15.485Z,99205.00
2018-12-17T16:39:43.760Z,99206.00
2018-12-17T16:42:12.072Z,99207.00
2018-12-17T16:44:40.369Z,99207.00
2018-12-17T16:47:08.676Z,99207.00
2018-12-17T16:49:36.977Z,99212.00
2018-12-17T16:52:05.253Z,99203.00
2018-12-17T16:54:33.699Z,99205.00
2018-12-17T16:57:02.002Z,99217.00
2018-12-17T16:59:30.365Z,99212.00
2018-12-17T17:02:04.458Z,99205.00
2018-12-17T17:04:29.241Z,99224.00
2018-12-17T17:06:57.566Z,99222.00
2018-12-17T17:09:25.921Z,99225.00
2018-12-17T17:11:54.214Z,99225.00
2018-12-17T17:14:22.676Z,99240.00
2018-12-17T17:16:51.068Z,99236.00
2018-12-17T17:19:19.438Z,99237.00
2018-12-17T17:21:47.805Z,99249.00
2018-12-17T17:24:16.069Z,99245.00
2018-12-17T17:26:44.347Z,99251.00
2018-12-17T17:29:12.625Z,99252.00
2018-12-17T17:31:40.952Z,99251.00
2018-12-17T17:34:10.149Z,99240.00
2018-12-17T17:36:38.585Z,99256.00
2018-12-17T17:39:08.146Z,99262.00
2018-12-17T17:41:36.524Z,99264.00
2018-12-17T17:44:04.796Z,99261.00
2018-12-17T17:46:33.106Z,99272.00
2018-12-17T17:49:01.414Z,99271.00
2018-12-17T17:51:29.733Z,99267.00
2018-12-17T17:53:58.073Z,99274.00
2018-12-17T17:56:26.385Z,99270.00
2018-12-17T17:58:54.807Z,99289.00
2018-12-17T18:01:23.187Z,99299.00
2018-12-17T18:03:51.532Z,99293.00
2018-12-17T18:06:19.861Z,99293.00
2018-12-17T18:08:48.194Z,99313.00
2018-12-17T18:11:16.465Z,99313.00
2018-12-17T18:13:44.750Z,99318.00
2018-12-17T18:16:13.024Z,99311.00
2018-12-17T18:18:41.418Z,99318.00
2018-12-17T18:21:09.718Z,99317.00
2018-12-17T18:23:37.999Z,99321.00
2018-12-17T18:26:06.295Z,99327.00
2018-12-17T18:28:34.659Z,99319.00
2018-12-17T18:31:03.065Z,99330.00
2018-12-17T18:33:31.346Z,99319.00
2018-12-17T18:35:59.685Z,99338.00
2018-12-17T18:38:28.070Z,99343.00
2018-12-17T18:40:56.364Z,99342.00
2018-12-17T18:43:24.693Z,99351.00
2018-12-17T18:45:53.006Z,99349.00
2018-12-17T18:48:21.414Z,99341.00
2018-12-17T18:50:49.774Z,99354.00
2018-12-17T18:53:18.029Z,99341.00
2018-12-17T18:55:46.317Z,99349.00
2018-12-17T18:58:14.594Z,99348.00
2018-12-17T19:00:42.903Z,99356.00
2018-12-17T19:03:11.334Z,99351.00
2018-12-17T19:05:39.607Z,99358.00
2018-12-17T19:08:07.885Z,99358.00
2018-12-17T19:10:51.885Z,99363.00
2018-12-17T19:13:20.215Z,99357.00
2018-12-17T19:15:48.553Z,99369.00
2018-12-17T19:18:16.828Z,99366.00
2018-12-17T19:20:45.111Z,99358.00
2018-12-17T19:23:13.376Z,99364.00
2018-12-17T19:25:41.633Z,99371.00
2018-12-17T19:35:05.747Z,99387.00
2018-12-17T19:37:34.251Z,99377.00
2018-12-17T19:40:02.922Z,99370.00
2018-12-17T19:42:31.435Z,99384.00
2018-12-17T19:44:59.955Z,99384.00
2018-12-17T19:47:28.480Z,99381.00
2018-12-17T19:49:57.140Z,99383.00
2018-12-17T19:52:25.645Z,99390.00
2018-12-17T19:54:54.153Z,99388.00
2018-12-17T19:57:22.643Z,99396.00
2018-12-17T19:59:51.151Z,99407.00
2018-12-17T20:02:19.712Z,99398.00
2018-12-17T20:04:48.196Z,99411.00
2018-12-17T20:07:16.707Z,99406.00
2018-12-17T20:09:45.257Z,99413.00
2018-12-17T20:12:13.755Z,99411.00
2018-12-17T20:14:42.286Z,99403.00
2018-12-17T20:17:10.777Z,99409.00
2018-12-17T20:19:39.403Z,99409.00
2018-12-17T20:22:08.114Z,99413.00
2018-12-17T20:24:37.082Z,99423.00
2018-12-17T20:27:05.660Z,99417.00
2018-12-17T20:29:34.203Z,99419.00
2018-12-17T20:32:03.027Z,99423.00
2018-12-17T20:34:31.779Z,99427.00
2018-12-17T20:37:00.619Z,99425.00
2018-12-17T20:39:29.239Z,99438.00
2018-12-17T20:41:57.725Z,99431.00
2018-12-17T20:44:26.466Z,99430.00
2018-12-17T20:46:54.996Z,99433.00
2018-12-17T20:49:25.801Z,99444.00
2018-12-17T20:51:54.714Z,99459.00
2018-12-17T20:54:23.575Z,99448.00
2018-12-17T20:56:52.081Z,99449.00
2018-12-17T20:59:20.575Z,99449.00
2018-12-17T21:01:49.077Z,99458.00
2018-12-17T21:04:18.146Z,99454.00
2018-12-17T21:06:50.109Z,99445.00
2018-12-17T21:09:19.033Z,99466.00
2018-12-17T21:11:49.565Z,99463.00
2018-12-17T21:14:23.599Z,99456.00
2018-12-17T21:16:49.560Z,99467.00
2018-12-17T21:19:34.523Z,99456.00
2018-12-17T21:22:05.545Z,99462.00
2018-12-17T21:24:34.055Z,99458.00
2018-12-17T21:27:02.583Z,99462.00
2018-12-17T21:29:31.089Z,99456.00
2018-12-17T21:31:59.596Z,99455.00
2018-12-17T21:34:28.082Z,99449.00
2018-12-17T21:36:56.824Z,99456.00
2018-12-17T21:39:25.366Z,99449.00
2018-12-17T21:41:53.938Z,99441.00
2018-12-17T21:44:22.435Z,99451.00
2018-12-17T21:46:51.003Z,99453.00
2018-12-17T21:49:19.629Z,99455.00
2018-12-17T21:51:48.294Z,99453.00
2018-12-17T21:54:16.882Z,99457.00
2018-12-17T21:56:45.383Z,99461.00
2018-12-17T21:59:13.880Z,99463.00
2018-12-17T22:01:42.584Z,99471.00
2018-12-17T22:04:11.062Z,99466.00
2018-12-17T22:06:39.586Z,99471.00
2018-12-17T22:09:09.841Z,99468.00
2018-12-17T22:11:49.306Z,99479.00
2018-12-17T22:14:19.591Z,99469.00
2018-12-17T22:16:48.087Z,99480.00
2018-12-17T22:19:16.696Z,99479.00
2018-12-17T22:21:45.191Z,99483.00
2018-12-17T22:24:13.703Z,99463.00
2018-12-17T22:26:42.342Z,99472.00
2018-12-17T22:29:10.827Z,99477.00
2018-12-17T22:31:39.403Z,99474.00
2018-12-17T22:34:07.927Z,99476.00
2018-12-17T22:36:36.526Z,99475.00
2018-12-17T22:39:06.588Z,99477.00
2018-12-17T22:41:35.279Z,99483.00
2018-12-17T22:44:03.752Z,99484.00
2018-12-17T22:46:32.266Z,99502.00
2018-12-17T22:49:01.016Z,99489.00
2018-12-17T22:51:29.502Z,99499.00
2018-12-17T22:53:58.012Z,99492.00
2018-12-17T22:56:26.506Z,99493.00
2018-12-17T22:58:55.433Z,99498.00
2018-12-17T23:01:24.055Z,99503.00
2018-12-17T23:03:52.531Z,99499.00
2018-12-17T23:06:21.055Z,99508.00
2018-12-17T23:09:00.761Z,99510.00
2018-12-17T23:11:46.045Z,99506.00
2018-12-17T23:14:25.812Z,99507.00
2018-12-17T23:17:05.656Z,99509.00
2018-12-17T23:19:40.270Z,99522.00
2018-12-17T23:22:08.968Z,99523.00
2018-12-17T23:24:37.882Z,99518.00
2018-12-17T23:27:06.867Z,99522.00
2018-12-17T23:29:35.372Z,99514.00
2018-12-17T23:32:03.967Z,99508.00
2018-12-17T23:34:32.443Z,99507.00
2018-12-17T23:37:01.096Z,99511.00
2018-12-17T23:39:29.598Z,99498.00
2018-12-17T23:41:58.080Z,99492.00
2018-12-17T23:44:26.578Z,99494.00
2018-12-17T23:46:55.113Z,99493.00
2018-12-17T23:49:23.616Z,99488.00
2018-12-17T23:51:52.318Z,99495.00
2018-12-17T23:54:20.943Z,99491.00
2018-12-17T23:56:49.452Z,99491.00
2018-12-17T23:59:17.934Z,99495.00
